Meteo Giornale » Osservazioni meteo Austria » Vienna-Schwechat

ore: 01:50 - Osservazioni Meteo Vienna-Schwechat
Lat. 48° 7' N Lon. 16° 34' E Alt. 183 metri s.l.m.

nebbia Europe/Vienna

9 °C

Banco di Nebbia

Temp. 24 Ore

8 °C

21 °C

Nord

1.8 Km/h

Dew point 9 °C

Umidità 100 %

Visibilità  0.4 Km

Il sole sorge alle ore 07:15

Il sole tramonta alle ore 18:02

Data e Ora Cielo e Fenomeni T °C DP °C Um. % Pres. hPa Vis. km Vento km/h
Oggi h: 01:50 nebbia Banco di Nebbia 9 9 100 1026 0.4 N 1.8
Oggi h: 01:20 nebbia Banco di Nebbia 9 9 100 1026 0.2 N 5.5
Oggi h: 00:50 nebbia Banco di Nebbia 9 9 100 1026 0.5 S 7.4
Oggi h: 00:20 nebbia Banco di Nebbia 10 9 93 1026 0.25 S 11.1
Ieri h: 23:50 nebbia Banco di Nebbia 12 11 93 1026 0.4 N 5.5
Ieri h: 23:20 foschia Foschia 13 12 93 1026 0.3 N 5.5
Ieri h: 22:50 sereno Sereno 14 13 93 1026 9 N 5.5
Ieri h: 22:20 sereno Sereno 13 11 87 1026 10 N 5.5
Ieri h: 21:50 sereno Sereno 14 12 87 1026 10 S 7.4
Ieri h: 21:20 sereno Sereno 15 12 82 1026 10 N 5.5
Ieri h: 20:50 sereno Sereno 14 12 87 1026 10 S 7.4
Ieri h: 20:20 sereno Sereno 14 13 93 1026 10 N 3.7
Ieri h: 19:50 sereno Sereno 15 12 82 1026 10 N 5.5
Ieri h: 19:20 sereno Sereno 15 13 87 1026 10 N 5.5
Ieri h: 18:50 sereno Sereno 15 13 87 1026 10 N 1.8
Ieri h: 18:20 sereno Sereno 17 13 77 1026 10 S/SE 7.4
Ieri h: 17:50 sereno Sereno 18 14 77 1026 10 N 5.5
Ieri h: 17:20 sereno Sereno 19 14 72 1026 10 N 3.7
Ieri h: 16:50 sereno Sereno 19 14 72 1026 10 SE 9.3
Ieri h: 16:20 sereno Sereno 20 14 68 1026 10 SE 11.1
Ieri h: 15:50 sereno Sereno 21 13 60 1026 10 SE 11.1
Ieri h: 15:20 sereno Sereno 21 13 60 1026 10 E/SE 7.4
Ieri h: 14:50 sereno Sereno 20 13 64 1027 10 E/SE 7.4
Ieri h: 14:20 sereno Sereno 20 14 68 1027 10 SE 7.4
Ieri h: 13:50 sereno Sereno 20 14 68 1027 10 S/SE 9.3
Ieri h: 13:20 sereno Sereno 19 14 72 1027 10 N 5.5
Ieri h: 12:50 sereno Sereno 17 14 82 1028 10 N 3.7
Ieri h: 12:20 poco_nuvoloso Poco Nuvoloso 16 14 87 1028 9 N 3.7
Ieri h: 11:50 foschia Foschia 13 13 100 1028 3 SE 7.4
Ieri h: 11:20 nebbia Nebbia 12 12 100 1028 0.9 N 5.5
Ieri h: 10:50 nebbia Nebbia 11 11 100 1028 0.4 S/SE 9.3
Ieri h: 10:20 nebbia Nebbia 11 11 100 1028 0.45 S 7.4
Ieri h: 09:50 nebbia Nebbia 11 11 100 1028 0.2 S/SE 11.1
Ieri h: 09:20 nebbia Nebbia 10 10 100 1028 0.2 S/SE 11.1
Ieri h: 08:50 nebbia Nebbia 10 10 100 1028 0.3 S 11.1
Ieri h: 08:20 nebbia Nebbia 9 9 100 1028 0.2 S/SE 7.4
Ieri h: 07:50 nebbia Nebbia 9 9 100 1028 0.3 SE 9.3
Ieri h: 07:20 nebbia Nebbia 9 9 100 1028 0.65 N 3.7
Ieri h: 06:50 nebbia Nebbia 8 8 100 1028 0.3 N 3.7
Ieri h: 06:20 nebbia NebbiaParziale 8 8 100 1028 0.3 N 5.5
Ieri h: 05:50 nebbia Nebbia 9 9 100 1028 0.2 O 7.4
Ieri h: 05:20 nebbia Banco di Nebbia 9 9 100 1027 0.35 S/SO 9.3
Ieri h: 04:50 nebbia Banco di Nebbia 8 8 100 1027 0.4 S/SE 11.1
Ieri h: 04:20 nebbia Nebbia 9 9 100 1027 0.3 N 5.5
Ieri h: 03:50 nebbia Banco di Nebbia 10 10 100 1027 0.4 N 1.8
Ieri h: 03:20 nebbia Nebbia 9 9 100 1027 0.4 N 5.5
Ieri h: 02:50 sereno Sereno 11 10 93 1027 6 SE 9.3